createdAt,value
2024-02-01T00:02:03.356Z,80.17
2024-02-01T00:04:29.929Z,80.22
2024-02-01T00:06:56.611Z,80.18
2024-02-01T00:09:23.291Z,80.04
2024-02-01T00:11:49.881Z,80.06
2024-02-01T00:14:16.477Z,80.10
2024-02-01T00:16:43.006Z,80.11
2024-02-01T00:19:09.651Z,80.14
2024-02-01T00:21:36.476Z,80.11
2024-02-01T00:24:03.066Z,80.04
2024-02-01T00:26:29.737Z,80.04
2024-02-01T00:28:56.213Z,80.02
2024-02-01T00:31:22.632Z,80.01
2024-02-01T00:33:49.246Z,79.92
2024-02-01T00:36:15.994Z,79.78
2024-02-01T00:38:42.463Z,79.84
2024-02-01T00:41:09.266Z,79.75
2024-02-01T00:43:35.658Z,79.83
2024-02-01T00:46:02.126Z,79.76
2024-02-01T00:48:28.761Z,79.77
2024-02-01T00:50:55.243Z,79.86
2024-02-01T00:53:21.837Z,79.86
2024-02-01T00:55:48.471Z,79.83
2024-02-01T00:58:15.006Z,79.76
2024-02-01T01:00:41.650Z,79.81
2024-02-01T01:03:08.464Z,79.83
2024-02-01T01:05:34.954Z,79.79
2024-02-01T01:08:01.707Z,79.98
2024-02-01T01:10:28.705Z,79.98
2024-02-01T01:12:55.170Z,80.12
2024-02-01T01:15:21.808Z,80.33
2024-02-01T01:17:48.590Z,80.16
2024-02-01T01:20:15.415Z,80.22
2024-02-01T01:22:42.434Z,80.23
2024-02-01T01:25:09.041Z,80.25
2024-02-01T01:27:35.572Z,80.35
2024-02-01T01:30:02.046Z,80.25
2024-02-01T01:32:28.650Z,80.37
2024-02-01T01:34:55.222Z,80.45
2024-02-01T01:37:21.717Z,80.53
2024-02-01T01:39:48.243Z,80.61
2024-02-01T01:42:14.812Z,80.71
2024-02-01T01:44:41.416Z,80.81
2024-02-01T01:47:07.984Z,81.00
2024-02-01T01:49:34.611Z,80.88
2024-02-01T01:52:01.158Z,80.89
2024-02-01T01:54:28.106Z,80.86
2024-02-01T01:56:54.576Z,80.84
2024-02-01T01:59:21.037Z,80.90
2024-02-01T02:01:47.490Z,80.94
2024-02-01T02:04:13.951Z,81.01
2024-02-01T02:06:40.503Z,81.02
2024-02-01T02:09:07.137Z,81.00
2024-02-01T02:11:33.658Z,81.10
2024-02-01T02:14:00.237Z,81.10
2024-02-01T02:16:26.779Z,81.11
2024-02-01T02:18:53.403Z,81.17
2024-02-01T02:21:20.390Z,81.17
2024-02-01T02:23:47.024Z,81.17
2024-02-01T02:26:13.436Z,81.14
2024-02-01T02:28:39.999Z,81.09
2024-02-01T02:31:06.624Z,81.08
2024-02-01T02:33:33.456Z,81.01
2024-02-01T02:36:00.131Z,81.02
2024-02-01T02:38:27.020Z,81.04
2024-02-01T02:40:53.651Z,81.09
2024-02-01T02:43:20.206Z,81.04
2024-02-01T02:45:46.860Z,81.01
2024-02-01T02:48:13.612Z,81.04
2024-02-01T02:50:40.228Z,81.04
2024-02-01T02:53:06.837Z,81.02
2024-02-01T02:55:33.255Z,80.92
2024-02-01T02:57:59.809Z,80.94
2024-02-01T03:00:26.442Z,80.92
2024-02-01T03:02:53.215Z,80.94
2024-02-01T03:05:19.824Z,80.99
2024-02-01T03:07:46.354Z,81.22
2024-02-01T03:10:12.896Z,81.10
2024-02-01T03:12:39.303Z,81.05
2024-02-01T03:15:05.755Z,81.09
2024-02-01T03:17:32.213Z,81.14
2024-02-01T03:19:58.750Z,81.25
2024-02-01T03:22:25.182Z,81.17
2024-02-01T03:24:51.790Z,81.23
2024-02-01T03:27:18.321Z,81.25
2024-02-01T03:29:45.378Z,81.11
2024-02-01T03:32:12.165Z,81.14
2024-02-01T03:34:38.650Z,81.36
2024-02-01T03:37:05.178Z,81.38
2024-02-01T03:39:31.719Z,81.35
2024-02-01T03:41:58.186Z,81.38
2024-02-01T03:44:24.792Z,81.42
2024-02-01T03:46:51.332Z,81.52
2024-02-01T03:49:18.030Z,81.54
2024-02-01T03:51:44.649Z,81.56
2024-02-01T03:54:11.394Z,81.51
2024-02-01T03:56:38.196Z,81.55
2024-02-01T03:59:04.822Z,81.63
2024-02-01T04:01:31.690Z,81.57
2024-02-01T04:03:58.232Z,81.47
2024-02-01T04:06:24.972Z,81.54
2024-02-01T04:08:51.634Z,81.41
2024-02-01T04:11:18.201Z,81.45
2024-02-01T04:13:44.672Z,81.53
2024-02-01T04:16:11.196Z,81.47
2024-02-01T04:18:37.722Z,81.49
2024-02-01T04:21:04.377Z,81.47
2024-02-01T04:23:30.977Z,81.43
2024-02-01T04:25:57.516Z,81.58
2024-02-01T04:28:24.086Z,81.52
2024-02-01T04:30:50.684Z,81.48
2024-02-01T04:33:17.324Z,81.51
2024-02-01T04:35:43.969Z,81.47
2024-02-01T04:38:10.380Z,81.63
2024-02-01T04:40:36.822Z,81.66
2024-02-01T04:43:03.349Z,81.63
2024-02-01T04:45:29.987Z,81.52
2024-02-01T04:47:56.573Z,81.53
2024-02-01T04:50:23.172Z,81.66
2024-02-01T04:52:49.693Z,81.70
2024-02-01T04:55:16.181Z,81.56
2024-02-01T04:57:42.762Z,81.75
2024-02-01T05:00:09.319Z,81.79
2024-02-01T05:02:35.890Z,81.73
2024-02-01T05:05:02.477Z,81.75
2024-02-01T05:07:28.946Z,81.81
2024-02-01T05:09:55.541Z,82.00
2024-02-01T05:12:22.126Z,81.97
2024-02-01T05:14:48.778Z,81.89
2024-02-01T05:17:15.357Z,81.84
2024-02-01T05:19:41.904Z,81.79
2024-02-01T05:22:08.664Z,81.77
2024-02-01T05:24:35.370Z,81.69
2024-02-01T05:27:01.916Z,81.62
2024-02-01T05:29:28.448Z,81.65
2024-02-01T05:31:54.980Z,81.70
2024-02-01T05:34:21.583Z,81.68
2024-02-01T05:36:48.398Z,81.81
2024-02-01T05:39:14.931Z,81.68
2024-02-01T05:41:41.537Z,81.85
2024-02-01T05:44:08.059Z,81.86
2024-02-01T05:46:34.514Z,81.81
2024-02-01T05:49:01.176Z,81.92
2024-02-01T05:51:27.767Z,81.95
2024-02-01T05:53:54.321Z,81.87
2024-02-01T05:56:20.844Z,81.79
2024-02-01T05:58:47.285Z,81.62
2024-02-01T06:01:13.737Z,81.67
2024-02-01T06:03:40.279Z,81.91
2024-02-01T06:06:06.943Z,82.01
2024-02-01T06:08:33.609Z,81.90
2024-02-01T06:11:00.230Z,81.96
2024-02-01T06:13:26.695Z,81.91
2024-02-01T06:15:53.305Z,81.99
2024-02-01T06:18:19.910Z,81.96
2024-02-01T06:20:46.693Z,82.13
2024-02-01T06:23:13.125Z,82.10
2024-02-01T06:25:39.601Z,82.07
2024-02-01T06:28:06.177Z,82.22
2024-02-01T06:30:32.643Z,82.16
2024-02-01T06:32:59.200Z,82.28
2024-02-01T06:35:25.936Z,82.37
2024-02-01T06:37:52.540Z,82.50
2024-02-01T06:40:19.068Z,82.63
2024-02-01T06:42:45.563Z,82.68
2024-02-01T06:45:12.043Z,82.76
2024-02-01T06:47:38.662Z,82.83
2024-02-01T06:50:05.339Z,82.87
2024-02-01T06:52:32.099Z,82.84
2024-02-01T06:54:58.574Z,82.79
2024-02-01T06:57:25.114Z,82.75
2024-02-01T06:59:51.761Z,82.82
2024-02-01T07:02:18.187Z,82.90
2024-02-01T07:04:44.641Z,82.80
2024-02-01T07:07:11.535Z,82.80
2024-02-01T07:09:38.127Z,82.86
2024-02-01T07:12:04.589Z,82.81
2024-02-01T07:14:31.010Z,82.73
2024-02-01T07:16:57.438Z,82.68
2024-02-01T07:19:24.142Z,82.78
2024-02-01T07:21:50.876Z,82.61
2024-02-01T07:24:17.385Z,82.56
2024-02-01T07:26:43.851Z,82.54
2024-02-01T07:29:10.295Z,82.47
2024-02-01T07:31:36.807Z,82.46
2024-02-01T07:34:03.474Z,82.45
2024-02-01T07:36:30.002Z,82.42
2024-02-01T07:38:56.457Z,82.48
2024-02-01T07:41:23.046Z,82.37
2024-02-01T07:43:49.453Z,82.42
2024-02-01T07:46:16.068Z,82.20
2024-02-01T07:48:42.630Z,81.98
2024-02-01T07:51:09.182Z,81.76
2024-02-01T07:53:35.680Z,81.78
2024-02-01T07:56:02.181Z,81.66
2024-02-01T07:58:28.577Z,81.65
2024-02-01T08:00:55.072Z,81.53
2024-02-01T08:03:21.735Z,81.42
2024-02-01T08:05:49.465Z,81.29
2024-02-01T08:08:15.994Z,81.13
2024-02-01T08:10:42.473Z,81.05
2024-02-01T08:13:08.928Z,80.81
2024-02-01T08:15:35.381Z,80.78
2024-02-01T08:18:01.965Z,80.79
2024-02-01T08:20:32.319Z,80.62
2024-02-01T08:22:59.966Z,80.67
2024-02-01T08:25:26.495Z,80.61
2024-02-01T08:27:52.979Z,80.68
2024-02-01T08:30:19.733Z,80.41
2024-02-01T08:32:46.408Z,80.16
2024-02-01T08:35:13.078Z,80.11
2024-02-01T08:37:39.689Z,79.99
2024-02-01T08:40:06.217Z,79.70
2024-02-01T08:42:34.482Z,79.50
2024-02-01T08:45:01.575Z,79.56
2024-02-01T08:47:28.055Z,79.41
2024-02-01T08:49:54.575Z,79.28
2024-02-01T08:52:21.145Z,79.29
2024-02-01T08:54:50.476Z,79.35
2024-02-01T08:57:17.442Z,79.30
2024-02-01T08:59:43.974Z,79.22
2024-02-01T09:02:10.452Z,79.22
2024-02-01T09:04:36.960Z,79.05
2024-02-01T09:07:03.653Z,79.07
2024-02-01T09:09:30.605Z,79.07
2024-02-01T09:11:57.446Z,78.88
2024-02-01T09:14:23.903Z,78.89
2024-02-01T09:16:50.341Z,78.90
2024-02-01T09:19:16.951Z,78.97
2024-02-01T09:21:43.650Z,78.82
2024-02-01T09:24:10.118Z,78.68
2024-02-01T09:26:36.601Z,78.59
2024-02-01T09:29:03.005Z,78.65
2024-02-01T09:31:29.519Z,78.57
2024-02-01T09:33:56.124Z,78.43
2024-02-01T09:36:22.759Z,78.42
2024-02-01T09:38:49.447Z,78.36
2024-02-01T09:41:16.037Z,78.25
2024-02-01T09:43:42.472Z,78.19
2024-02-01T09:46:08.890Z,78.30
2024-02-01T09:48:35.418Z,78.28
2024-02-01T09:51:02.000Z,78.31
2024-02-01T09:53:28.476Z,78.15
2024-02-01T09:55:54.899Z,77.96
2024-02-01T09:58:21.317Z,77.97
2024-02-01T10:00:47.776Z,77.94
2024-02-01T10:03:14.279Z,77.83
2024-02-01T10:05:40.889Z,77.83
2024-02-01T10:08:07.306Z,77.69
2024-02-01T10:10:33.727Z,77.62
2024-02-01T10:13:00.448Z,77.48
2024-02-01T10:15:26.913Z,77.56
2024-02-01T10:17:53.575Z,77.57
2024-02-01T10:20:20.398Z,77.59
2024-02-01T10:22:46.819Z,77.61
2024-02-01T10:25:13.240Z,77.70
2024-02-01T10:27:39.702Z,77.82
2024-02-01T10:30:06.267Z,78.04
2024-02-01T10:32:32.899Z,78.29
2024-02-01T10:34:59.440Z,78.68
2024-02-01T10:37:26.477Z,79.04
2024-02-01T10:39:52.966Z,79.13
2024-02-01T10:42:19.501Z,79.62
2024-02-01T10:44:46.003Z,79.75
2024-02-01T10:47:12.467Z,80.04
2024-02-01T10:49:39.299Z,80.37
2024-02-01T10:52:05.849Z,80.54
2024-02-01T10:54:33.599Z,80.74
2024-02-01T10:59:52.099Z,81.42
2024-02-01T11:02:18.580Z,81.40
2024-02-01T11:04:45.028Z,81.56
2024-02-01T11:07:18.660Z,81.74
2024-02-01T11:09:45.476Z,82.02
2024-02-01T11:12:12.107Z,82.18
2024-02-01T11:14:38.597Z,82.22
2024-02-01T11:17:05.294Z,82.24
2024-02-01T11:19:34.270Z,82.32
2024-02-01T11:22:03.269Z,82.44
2024-02-01T11:24:29.704Z,82.42
2024-02-01T11:26:56.486Z,82.59
2024-02-01T11:29:23.191Z,82.74
2024-02-01T11:31:52.248Z,82.81
2024-02-01T11:34:19.134Z,83.13
2024-02-01T11:36:45.747Z,83.15
2024-02-01T11:39:12.512Z,83.13
2024-02-01T11:41:39.007Z,83.14
2024-02-01T11:44:05.466Z,83.42
2024-02-01T11:46:31.921Z,83.57
2024-02-01T11:48:58.456Z,83.58
2024-02-01T11:51:25.171Z,83.66
2024-02-01T11:53:54.674Z,83.95
2024-02-01T11:56:21.119Z,83.79
2024-02-01T11:58:47.568Z,83.86
2024-02-01T12:01:16.704Z,83.96
2024-02-01T12:03:43.714Z,84.20
2024-02-01T12:06:10.212Z,84.27
2024-02-01T12:08:36.821Z,84.03
2024-02-01T12:11:03.269Z,84.25
2024-02-01T12:13:29.824Z,84.40
2024-02-01T12:15:56.359Z,84.58
2024-02-01T12:18:23.255Z,84.83
2024-02-01T12:20:50.071Z,85.11
2024-02-01T12:23:16.727Z,85.20
2024-02-01T12:25:43.132Z,85.21
2024-02-01T12:28:09.538Z,85.33
2024-02-01T12:30:35.997Z,85.29
2024-02-01T12:33:02.594Z,85.57
2024-02-01T12:35:29.159Z,85.65
2024-02-01T12:37:55.586Z,85.49
2024-02-01T12:40:22.109Z,85.85
2024-02-01T12:42:48.546Z,85.92
2024-02-01T12:45:15.159Z,85.75
2024-02-01T12:47:41.884Z,85.74
2024-02-01T12:50:08.464Z,85.88
2024-02-01T12:52:34.898Z,85.89
2024-02-01T12:55:01.627Z,85.92
2024-02-01T12:57:28.092Z,85.89
2024-02-01T12:59:54.750Z,86.50
2024-02-01T13:02:21.334Z,86.27
2024-02-01T13:04:47.865Z,86.42
2024-02-01T13:07:14.292Z,86.45
2024-02-01T13:09:40.728Z,86.14
2024-02-01T13:12:07.469Z,86.21
2024-02-01T13:14:36.745Z,86.22
2024-02-01T13:17:04.434Z,86.35
2024-02-01T13:19:30.926Z,86.35
2024-02-01T13:21:57.384Z,86.37
2024-02-01T13:24:24.016Z,86.31
2024-02-01T13:26:50.764Z,86.40
2024-02-01T13:29:17.350Z,86.25
2024-02-01T13:31:43.751Z,86.12
2024-02-01T13:34:10.344Z,86.02
2024-02-01T13:36:37.016Z,86.06
2024-02-01T13:39:03.472Z,86.08
2024-02-01T13:41:29.942Z,85.90
2024-02-01T13:43:58.765Z,85.98
2024-02-01T13:46:27.819Z,85.78
2024-02-01T13:48:54.338Z,85.95
2024-02-01T13:51:20.966Z,85.89
2024-02-01T13:53:47.436Z,85.86
2024-02-01T13:56:13.934Z,85.83
2024-02-01T13:58:40.385Z,85.84
2024-02-01T14:01:06.974Z,85.65
2024-02-01T14:03:33.680Z,85.61
2024-02-01T14:06:01.714Z,85.67
2024-02-01T14:08:28.303Z,85.73
2024-02-01T14:10:55.298Z,85.63
2024-02-01T14:13:21.806Z,85.55
2024-02-01T14:15:48.221Z,85.42
2024-02-01T14:18:14.727Z,85.44
2024-02-01T14:20:41.455Z,85.42
2024-02-01T14:23:08.378Z,85.50
2024-02-01T14:25:34.800Z,85.63
2024-02-01T14:28:01.214Z,85.48
2024-02-01T14:30:28.786Z,85.40
2024-02-01T14:32:55.360Z,85.41
2024-02-01T14:35:21.987Z,84.94
2024-02-01T14:37:48.424Z,84.88
2024-02-01T14:40:15.709Z,84.66
2024-02-01T14:42:42.472Z,84.18
2024-02-01T14:45:08.984Z,84.01
2024-02-01T14:47:35.606Z,83.48
2024-02-01T14:50:02.095Z,82.97
2024-02-01T14:52:28.502Z,82.84
2024-02-01T14:54:54.900Z,82.21
2024-02-01T14:57:21.412Z,82.13
2024-02-01T14:59:47.851Z,82.05
2024-02-01T15:02:14.259Z,81.73
2024-02-01T15:04:40.696Z,81.46
2024-02-01T15:07:07.184Z,81.65
2024-02-01T15:09:33.699Z,81.65
2024-02-01T15:12:00.251Z,81.68
2024-02-01T15:14:26.688Z,81.91
2024-02-01T15:16:53.102Z,82.08
2024-02-01T15:19:19.668Z,82.29
2024-02-01T15:21:46.276Z,82.53
2024-02-01T15:24:12.678Z,82.55
2024-02-01T15:26:39.096Z,82.71
2024-02-01T15:29:05.523Z,82.64
2024-02-01T15:31:31.931Z,82.80
2024-02-01T15:33:58.525Z,82.85
2024-02-01T15:36:25.202Z,82.73
2024-02-01T15:38:51.775Z,82.96
2024-02-01T15:41:18.255Z,82.93
2024-02-01T15:43:44.697Z,83.01
2024-02-01T15:46:11.124Z,83.16
2024-02-01T15:48:37.709Z,83.19
2024-02-01T15:51:04.415Z,83.16
2024-02-01T15:53:30.847Z,83.32
2024-02-01T15:55:57.278Z,83.37
2024-02-01T15:58:23.716Z,83.54
2024-02-01T16:00:50.160Z,83.62
2024-02-01T16:03:16.784Z,83.65
2024-02-01T16:05:43.332Z,83.65
2024-02-01T16:08:09.811Z,83.82
2024-02-01T16:10:36.247Z,83.87
2024-02-01T16:13:02.658Z,83.83
2024-02-01T16:15:29.152Z,83.75
2024-02-01T16:17:55.654Z,83.81
2024-02-01T16:20:22.123Z,83.83
2024-02-01T16:22:48.603Z,83.76
2024-02-01T16:25:15.049Z,83.78
2024-02-01T16:27:41.472Z,83.69
2024-02-01T16:30:08.420Z,83.76
2024-02-01T16:32:35.071Z,83.84
2024-02-01T16:35:01.566Z,83.64
2024-02-01T16:37:28.163Z,83.39
2024-02-01T16:39:54.582Z,83.40
2024-02-01T16:42:21.056Z,83.40
2024-02-01T16:44:47.726Z,83.22
2024-02-01T16:47:14.294Z,83.27
2024-02-01T16:49:41.156Z,83.14
2024-02-01T16:52:15.285Z,83.19
2024-02-01T16:54:44.941Z,83.08
2024-02-01T16:57:11.470Z,83.10
2024-02-01T16:59:37.940Z,83.20
2024-02-01T17:02:04.361Z,83.09
2024-02-01T17:04:31.041Z,83.15
2024-02-01T17:06:57.652Z,83.14
2024-02-01T17:09:24.437Z,83.21
2024-02-01T17:11:51.159Z,83.17
2024-02-01T17:14:17.559Z,83.29
2024-02-01T17:16:43.973Z,83.35
2024-02-01T17:19:10.513Z,83.34
2024-02-01T17:21:37.014Z,83.34
2024-02-01T17:24:05.342Z,83.48
2024-02-01T17:26:33.686Z,83.40
2024-02-01T17:29:00.148Z,83.39
2024-02-01T17:31:26.592Z,83.53
2024-02-01T17:33:53.402Z,83.35
2024-02-01T17:36:20.195Z,83.50
2024-02-01T17:38:46.730Z,83.55
2024-02-01T17:41:13.202Z,83.44
2024-02-01T17:43:39.661Z,83.64
2024-02-01T17:46:06.095Z,83.60
2024-02-01T17:48:32.602Z,83.88
2024-02-01T17:50:59.194Z,84.05
2024-02-01T17:53:25.667Z,84.17
2024-02-01T17:55:52.125Z,83.96
2024-02-01T17:58:18.548Z,83.87
2024-02-01T18:00:45.065Z,83.77
2024-02-01T18:03:11.530Z,83.71
2024-02-01T18:05:37.982Z,83.82
2024-02-01T18:08:04.521Z,83.91
2024-02-01T18:10:30.936Z,84.00
2024-02-01T18:12:57.381Z,83.93
2024-02-01T18:15:23.833Z,83.83
2024-02-01T18:17:50.371Z,84.08
2024-02-01T18:20:17.140Z,84.00
2024-02-01T18:22:43.569Z,84.20
2024-02-01T18:25:10.016Z,84.19
2024-02-01T18:27:36.451Z,84.13
2024-02-01T18:30:03.555Z,84.24
2024-02-01T18:32:30.422Z,84.21
2024-02-01T18:34:57.186Z,84.33
2024-02-01T18:37:23.908Z,84.37
2024-02-01T18:39:50.445Z,84.32
2024-02-01T18:42:16.937Z,84.10
2024-02-01T18:44:43.373Z,84.21
2024-02-01T18:47:09.857Z,84.14
2024-02-01T18:49:36.611Z,84.10
2024-02-01T18:52:03.228Z,84.15
2024-02-01T18:54:29.684Z,84.05
2024-02-01T18:56:56.151Z,84.07
2024-02-01T18:59:22.621Z,84.07
2024-02-01T19:01:49.078Z,84.21
2024-02-01T19:04:15.516Z,84.10
2024-02-01T19:06:41.997Z,84.17
2024-02-01T19:09:08.568Z,84.05
2024-02-01T19:11:35.116Z,83.94
2024-02-01T19:14:01.613Z,83.87
2024-02-01T19:16:28.189Z,83.85
2024-02-01T19:18:54.833Z,83.78
2024-02-01T19:21:22.349Z,83.72
2024-02-01T19:23:48.975Z,83.63
2024-02-01T19:26:15.419Z,83.65
2024-02-01T19:28:41.846Z,83.71
2024-02-01T19:31:08.286Z,83.63
2024-02-01T19:33:34.983Z,83.90
2024-02-01T19:36:01.557Z,83.81
2024-02-01T19:38:28.551Z,83.75
2024-02-01T19:40:55.071Z,83.64
2024-02-01T19:43:21.605Z,83.47
2024-02-01T19:45:48.020Z,83.17
2024-02-01T19:48:15.034Z,83.13
2024-02-01T19:50:41.679Z,82.86
2024-02-01T19:53:08.190Z,82.67
2024-02-01T19:55:34.624Z,82.60
2024-02-01T19:58:01.033Z,82.57
2024-02-01T20:00:27.716Z,82.36
2024-02-01T20:02:54.396Z,82.25
2024-02-01T20:05:20.949Z,82.12
2024-02-01T20:07:47.340Z,81.87
2024-02-01T20:10:13.889Z,81.83
2024-02-01T20:12:40.381Z,81.58
2024-02-01T20:15:06.800Z,81.43
2024-02-01T20:17:33.235Z,81.40
2024-02-01T20:19:59.735Z,81.39
2024-02-01T20:22:30.721Z,81.20
2024-02-01T20:24:57.141Z,81.27
2024-02-01T20:27:24.462Z,81.16
2024-02-01T20:29:51.095Z,81.14
2024-02-01T20:32:17.522Z,81.13
2024-02-01T20:34:43.984Z,81.03
2024-02-01T20:37:10.418Z,81.01
2024-02-01T20:39:36.835Z,80.90
2024-02-01T20:42:03.313Z,80.58
2024-02-01T20:44:29.769Z,80.45
2024-02-01T20:46:56.184Z,80.43
2024-02-01T20:49:22.723Z,80.32
2024-02-01T20:51:49.273Z,80.04
2024-02-01T20:54:15.833Z,79.76
2024-02-01T20:56:42.337Z,79.78
2024-02-01T20:59:08.777Z,79.69
2024-02-01T21:01:35.214Z,79.59
2024-02-01T21:04:01.672Z,79.41
2024-02-01T21:06:28.344Z,79.08
2024-02-01T21:08:55.093Z,78.96
2024-02-01T21:11:21.631Z,78.56
2024-02-01T21:13:48.042Z,78.46
2024-02-01T21:16:14.470Z,78.06
2024-02-01T21:18:41.016Z,77.99
2024-02-01T21:21:07.659Z,78.13
2024-02-01T21:23:34.220Z,78.06
2024-02-01T21:26:07.532Z,77.91
2024-02-01T21:28:34.601Z,77.64
2024-02-01T21:31:01.066Z,77.50
2024-02-01T21:33:27.578Z,77.36
2024-02-01T21:35:54.411Z,77.39
2024-02-01T21:38:20.919Z,77.57
2024-02-01T21:40:47.356Z,77.25
2024-02-01T21:43:13.789Z,77.28
2024-02-01T21:45:40.226Z,77.00
2024-02-01T21:48:07.129Z,77.13
2024-02-01T21:50:33.603Z,77.04
2024-02-01T21:53:00.050Z,77.39
2024-02-01T21:55:26.548Z,77.32
2024-02-01T21:57:53.095Z,77.31
2024-02-01T22:00:19.627Z,77.35
2024-02-01T22:02:46.142Z,77.42
2024-02-01T22:05:12.682Z,77.31
2024-02-01T22:07:39.123Z,77.47
2024-02-01T22:10:05.544Z,77.49
2024-02-01T22:12:32.001Z,77.57
2024-02-01T22:14:59.358Z,77.60
2024-02-01T22:17:25.994Z,77.93
2024-02-01T22:19:52.544Z,77.91
2024-02-01T22:22:19.034Z,77.95
2024-02-01T22:24:45.455Z,78.75
2024-02-01T22:27:12.218Z,78.36
2024-02-01T22:29:38.748Z,78.62
2024-02-01T22:32:05.184Z,79.20
2024-02-01T22:34:31.685Z,79.47
2024-02-01T22:36:58.181Z,79.84
2024-02-01T22:39:24.689Z,80.11
2024-02-01T22:41:51.164Z,80.47
2024-02-01T22:44:17.608Z,80.87
2024-02-01T22:46:44.045Z,81.03
2024-02-01T22:49:10.859Z,81.35
2024-02-01T22:51:37.532Z,82.39
2024-02-01T22:54:04.168Z,83.58
2024-02-01T22:56:30.750Z,84.66
2024-02-01T22:58:57.148Z,85.19
2024-02-01T23:01:23.582Z,85.61
2024-02-01T23:03:50.144Z,85.29
2024-02-01T23:06:16.718Z,85.45
2024-02-01T23:08:43.198Z,85.46
2024-02-01T23:11:09.841Z,85.52
2024-02-01T23:13:36.257Z,85.28
2024-02-01T23:16:02.703Z,85.39
2024-02-01T23:18:29.248Z,85.07
2024-02-01T23:20:56.018Z,85.07
2024-02-01T23:23:23.033Z,84.87
2024-02-01T23:25:49.442Z,85.02
2024-02-01T23:28:15.955Z,84.89
2024-02-01T23:30:42.419Z,84.75
2024-02-01T23:33:08.975Z,84.61
2024-02-01T23:35:35.518Z,84.49
2024-02-01T23:38:01.980Z,84.31
2024-02-01T23:40:28.404Z,84.35
2024-02-01T23:42:54.842Z,84.29
2024-02-01T23:45:21.286Z,84.31
2024-02-01T23:47:47.828Z,84.11
2024-02-01T23:50:14.401Z,84.17
2024-02-01T23:52:40.834Z,84.20
2024-02-01T23:55:07.271Z,84.21
2024-02-01T23:57:33.763Z,84.05
